createdAt,value
2023-10-09T00:00:26.655Z,99925.19
2023-10-09T00:02:00.174Z,99918.47
2023-10-09T00:03:33.045Z,99924.16
2023-10-09T00:05:16.135Z,99919.50
2023-10-09T00:06:50.198Z,99925.81
2023-10-09T00:08:28.160Z,99905.81
2023-10-09T00:10:01.544Z,99926.91
2023-10-09T00:11:39.692Z,99920.13
2023-10-09T00:13:13.447Z,99925.38
2023-10-09T00:14:49.549Z,99929.00
2023-10-09T00:16:34.671Z,99930.44
2023-10-09T00:18:13.576Z,99935.56
2023-10-09T00:19:50.965Z,99930.66
2023-10-09T00:21:23.712Z,99925.34
2023-10-09T00:22:59.316Z,99935.66
2023-10-09T00:24:33.770Z,99916.88
2023-10-09T00:26:17.465Z,99929.94
2023-10-09T00:27:55.449Z,99937.38
2023-10-09T00:29:29.594Z,99938.53
2023-10-09T00:31:05.838Z,99942.56
2023-10-09T00:32:46.660Z,99937.44
2023-10-09T00:34:20.746Z,99943.69
2023-10-09T00:35:56.467Z,99941.06
2023-10-09T00:37:35.491Z,99950.22
2023-10-09T00:39:20.414Z,99949.84
2023-10-09T00:41:06.386Z,99945.19
2023-10-09T00:42:40.372Z,99942.91
2023-10-09T00:44:13.201Z,99957.41
2023-10-09T00:45:46.772Z,99966.88
2023-10-09T00:47:22.477Z,99959.34
2023-10-09T00:49:02.800Z,99962.72
2023-10-09T00:50:36.981Z,99964.31
2023-10-09T00:52:19.165Z,99978.50
2023-10-09T00:53:55.065Z,99980.16
2023-10-09T00:55:39.531Z,99986.88
2023-10-09T00:57:14.964Z,99986.03
2023-10-09T00:58:47.995Z,99987.50
2023-10-09T01:00:46.926Z,100000.06
2023-10-09T01:02:20.993Z,99992.13
2023-10-09T01:03:54.524Z,99991.69
2023-10-09T01:05:28.483Z,99994.78
2023-10-09T01:07:22.535Z,99993.34
2023-10-09T01:09:10.025Z,99998.22
2023-10-09T01:10:57.623Z,100005.13
2023-10-09T01:12:31.842Z,100008.50
2023-10-09T01:14:13.443Z,100002.59
2023-10-09T01:15:48.123Z,100010.16
2023-10-09T01:17:32.080Z,100004.22
2023-10-09T01:19:21.361Z,100005.50
2023-10-09T01:20:54.872Z,100003.78
2023-10-09T01:22:27.178Z,100005.16
2023-10-09T01:24:06.203Z,100009.81
2023-10-09T01:25:45.550Z,99992.22
2023-10-09T01:27:18.871Z,100017.47
2023-10-09T01:28:51.595Z,100028.56
2023-10-09T01:30:24.900Z,100018.13
2023-10-09T01:32:02.201Z,100027.69
2023-10-09T01:33:37.781Z,100025.47
2023-10-09T01:35:22.038Z,100026.28
2023-10-09T01:36:57.315Z,100030.38
2023-10-09T01:38:41.383Z,100035.47
2023-10-09T01:40:26.427Z,100045.44
2023-10-09T01:41:59.994Z,100037.66
2023-10-09T01:43:35.359Z,100047.72
2023-10-09T01:45:17.412Z,100053.81
2023-10-09T01:46:55.945Z,100046.91
2023-10-09T01:48:30.761Z,100054.00
2023-10-09T01:50:06.347Z,100041.13
2023-10-09T01:51:40.135Z,100051.13
2023-10-09T01:53:19.090Z,100057.94
2023-10-09T01:54:54.528Z,100065.56
2023-10-09T01:56:28.396Z,100071.66
2023-10-09T01:58:06.944Z,100044.78
2023-10-09T01:59:40.085Z,100065.13
2023-10-09T02:01:13.873Z,100061.50
2023-10-09T02:02:46.595Z,100063.13
2023-10-09T02:04:22.218Z,100068.59
2023-10-09T02:06:00.922Z,100074.69
2023-10-09T02:07:41.896Z,100076.88
2023-10-09T02:09:23.661Z,100078.44
2023-10-09T02:10:57.444Z,100081.31
2023-10-09T02:12:34.910Z,100078.03
2023-10-09T02:14:20.316Z,100078.88
2023-10-09T02:15:55.505Z,100079.06
2023-10-09T02:17:31.100Z,100071.50
2023-10-09T02:19:09.333Z,100066.44
2023-10-09T02:20:41.609Z,100062.53
2023-10-09T02:22:15.126Z,100073.78
2023-10-09T02:23:50.864Z,100073.63
2023-10-09T02:25:30.348Z,100077.06
2023-10-09T02:27:08.978Z,100075.44
2023-10-09T02:28:45.276Z,100073.00
2023-10-09T02:30:20.743Z,100075.34
2023-10-09T02:32:01.872Z,100080.19
2023-10-09T02:33:37.489Z,100084.44
2023-10-09T02:35:20.186Z,100076.25
2023-10-09T02:36:58.974Z,100075.28
2023-10-09T02:38:35.392Z,100085.63
2023-10-09T02:40:10.010Z,100080.97
2023-10-09T02:41:50.851Z,100086.09
2023-10-09T02:43:26.522Z,100081.44
2023-10-09T02:45:05.034Z,100088.53
2023-10-09T02:46:37.365Z,100094.88
2023-10-09T02:48:12.326Z,100099.34
2023-10-09T02:49:44.709Z,100088.41
2023-10-09T02:51:32.148Z,100087.78
2023-10-09T02:53:10.320Z,100096.31
2023-10-09T02:54:43.727Z,100099.59
2023-10-09T02:56:18.777Z,100103.69
2023-10-09T02:57:53.446Z,100108.97
2023-10-09T02:59:25.970Z,100109.16
2023-10-09T03:01:01.397Z,100108.13
2023-10-09T03:02:33.774Z,100109.22
2023-10-09T03:04:07.213Z,100114.06
2023-10-09T03:05:43.907Z,100117.69
2023-10-09T03:07:17.527Z,100110.97
2023-10-09T03:08:49.759Z,100094.44
2023-10-09T03:10:26.612Z,100120.53
2023-10-09T03:12:04.080Z,100115.34
2023-10-09T03:13:37.731Z,100117.69
2023-10-09T03:15:12.633Z,100112.97
2023-10-09T03:16:46.483Z,100117.41
2023-10-09T03:18:20.217Z,100128.50
2023-10-09T03:19:53.537Z,100131.13
2023-10-09T03:21:25.869Z,100124.25
2023-10-09T03:22:59.085Z,100117.94
2023-10-09T03:24:32.273Z,100119.59
2023-10-09T03:26:20.917Z,100123.22
2023-10-09T03:27:57.382Z,100116.16
2023-10-09T03:29:29.914Z,100119.31
2023-10-09T03:31:04.166Z,100122.34
2023-10-09T03:32:38.132Z,100126.06
2023-10-09T03:34:12.159Z,100122.31
2023-10-09T03:35:46.140Z,100122.13
2023-10-09T03:37:23.542Z,100125.13
2023-10-09T03:38:59.490Z,100127.78
2023-10-09T03:40:33.409Z,100126.75
2023-10-09T03:42:06.845Z,100125.78
2023-10-09T03:43:41.938Z,100118.59
2023-10-09T03:45:25.742Z,100105.44
2023-10-09T03:46:59.041Z,100129.13
2023-10-09T03:48:33.656Z,100131.97
2023-10-09T03:50:25.231Z,100130.69
2023-10-09T03:52:00.847Z,100134.59
2023-10-09T03:53:33.164Z,100137.59
2023-10-09T03:55:12.198Z,100140.22
2023-10-09T03:56:45.919Z,100137.59
2023-10-09T03:58:20.323Z,100140.03
2023-10-09T03:59:54.387Z,100137.22
2023-10-09T04:01:29.660Z,100148.56
2023-10-09T04:03:04.246Z,100146.13
2023-10-09T04:04:38.187Z,100151.03
2023-10-09T04:06:12.449Z,100154.31
2023-10-09T04:07:44.705Z,100157.13
2023-10-09T04:09:37.092Z,100145.84
2023-10-09T04:11:17.360Z,100162.31
2023-10-09T04:12:54.168Z,100165.56
2023-10-09T04:14:34.993Z,100168.22
2023-10-09T04:16:32.110Z,100160.31
2023-10-09T04:18:07.061Z,100157.72
2023-10-09T04:19:49.400Z,100160.22
2023-10-09T04:21:35.499Z,100158.75
2023-10-09T04:23:08.290Z,100157.91
2023-10-09T04:24:43.433Z,100151.00
2023-10-09T04:26:15.702Z,100149.91
2023-10-09T04:27:49.182Z,100170.69
2023-10-09T04:29:27.868Z,100168.59
2023-10-09T04:31:07.524Z,100167.13
2023-10-09T04:32:41.543Z,100175.31
2023-10-09T04:34:30.060Z,100174.34
2023-10-09T04:36:23.318Z,100168.16
2023-10-09T04:38:05.794Z,100174.16
2023-10-09T04:39:48.067Z,100180.88
2023-10-09T04:41:28.879Z,100180.34
2023-10-09T04:43:01.177Z,100182.81
2023-10-09T04:44:37.450Z,100171.28
2023-10-09T04:46:13.785Z,100174.38
2023-10-09T04:47:59.658Z,100165.38
2023-10-09T04:49:46.964Z,100177.97
2023-10-09T04:51:33.082Z,100176.19
2023-10-09T04:53:23.557Z,100180.81
2023-10-09T04:55:17.684Z,100177.94
2023-10-09T04:56:56.198Z,100179.00
2023-10-09T04:58:33.425Z,100185.94
2023-10-09T05:00:08.231Z,100192.81
2023-10-09T05:01:48.056Z,100188.56
2023-10-09T05:03:28.545Z,100189.19
2023-10-09T05:05:18.053Z,100199.28
2023-10-09T05:06:56.587Z,100197.28
2023-10-09T05:08:34.210Z,100194.19
2023-10-09T05:10:11.160Z,100213.91
2023-10-09T05:11:55.946Z,100221.00
2023-10-09T05:13:43.863Z,100218.19
2023-10-09T05:15:16.638Z,100219.16
2023-10-09T05:16:56.432Z,100229.34
2023-10-09T05:18:28.811Z,100227.34
2023-10-09T05:20:15.893Z,100233.47
2023-10-09T05:21:49.451Z,100238.19
2023-10-09T05:23:24.719Z,100234.72
2023-10-09T05:24:59.636Z,100239.47
2023-10-09T05:26:51.921Z,100247.38
2023-10-09T05:28:32.364Z,100241.47
2023-10-09T05:30:25.784Z,100240.44
2023-10-09T05:32:04.501Z,100251.00
2023-10-09T05:33:40.008Z,100227.75
2023-10-09T05:35:17.046Z,100245.38
2023-10-09T05:36:49.366Z,100251.28
2023-10-09T05:38:26.178Z,100254.28
2023-10-09T05:40:19.732Z,100253.63
2023-10-09T05:42:01.327Z,100258.56
2023-10-09T05:43:52.584Z,100257.81
2023-10-09T05:45:43.556Z,100251.56
2023-10-09T05:47:36.557Z,100246.13
2023-10-09T05:49:21.159Z,100244.97
2023-10-09T05:51:13.601Z,100248.25
2023-10-09T05:53:04.655Z,100249.16
2023-10-09T05:54:53.062Z,100261.25
2023-10-09T05:56:58.360Z,100263.75
2023-10-09T05:58:48.858Z,100266.69
2023-10-09T06:00:39.729Z,100258.47
2023-10-09T06:02:30.598Z,100265.38
2023-10-09T06:04:16.606Z,100260.22
2023-10-09T06:06:03.369Z,100258.34
2023-10-09T06:08:03.206Z,100260.97
2023-10-09T06:09:51.612Z,100273.06
2023-10-09T06:11:40.767Z,100271.09
2023-10-09T06:13:39.783Z,100278.00
2023-10-09T06:15:32.997Z,100270.00
2023-10-09T06:17:24.163Z,100261.06
2023-10-09T06:19:09.456Z,100278.34
2023-10-09T06:21:04.587Z,100278.41
2023-10-09T06:22:51.813Z,100275.22
2023-10-09T06:24:27.385Z,100274.22
2023-10-09T06:26:22.154Z,100271.84
2023-10-09T06:27:59.993Z,100281.63
2023-10-09T06:29:36.661Z,100284.19
2023-10-09T06:31:23.793Z,100279.59
2023-10-09T06:33:14.796Z,100291.28
2023-10-09T06:34:52.989Z,100288.19
2023-10-09T06:36:32.614Z,100289.38
2023-10-09T06:38:24.840Z,100284.09
2023-10-09T06:40:13.148Z,100293.22
2023-10-09T06:41:46.572Z,100287.50
2023-10-09T06:43:29.183Z,100294.53
2023-10-09T06:45:06.811Z,100290.31
2023-10-09T06:46:46.047Z,100284.22
2023-10-09T06:48:51.616Z,100292.97
2023-10-09T06:50:43.929Z,100288.41
2023-10-09T06:52:36.821Z,100295.56
2023-10-09T06:54:17.659Z,100295.25
2023-10-09T06:55:50.159Z,100287.69
2023-10-09T06:57:40.733Z,100297.13
2023-10-09T06:59:23.052Z,100300.78
2023-10-09T07:01:20.947Z,100284.22
2023-10-09T07:02:54.934Z,100294.00
2023-10-09T07:04:42.168Z,100289.50
2023-10-09T07:06:26.376Z,100299.66
2023-10-09T07:08:20.171Z,100293.03
2023-10-09T07:10:12.161Z,100301.88
2023-10-09T07:12:05.779Z,100296.53
2023-10-09T07:13:38.425Z,100302.56
2023-10-09T07:15:31.535Z,100301.19
2023-10-09T07:17:17.315Z,100295.13
2023-10-09T07:18:50.983Z,100285.00
2023-10-09T07:22:30.823Z,100287.72
2023-10-09T07:24:15.620Z,100281.00
2023-10-09T07:25:59.736Z,100275.75
2023-10-09T07:27:45.911Z,100280.22
2023-10-09T07:29:22.880Z,100262.28
2023-10-09T07:30:59.151Z,100279.84
2023-10-09T07:32:33.198Z,100288.78
2023-10-09T07:34:08.846Z,100279.59
2023-10-09T07:35:49.124Z,100276.22
2023-10-09T07:37:25.370Z,100293.28
2023-10-09T07:39:00.910Z,100294.56
2023-10-09T07:40:53.337Z,100297.22
2023-10-09T07:42:44.894Z,100286.75
2023-10-09T07:44:32.075Z,100291.66
2023-10-09T07:46:25.788Z,100290.97
2023-10-09T07:48:06.442Z,100281.06
2023-10-09T07:49:38.956Z,100276.25
2023-10-09T07:51:14.147Z,100273.31
2023-10-09T07:52:51.090Z,100275.06
2023-10-09T07:54:33.428Z,100277.97
2023-10-09T07:56:08.502Z,100277.78
2023-10-09T07:57:41.005Z,100284.47
2023-10-09T07:59:15.233Z,100269.59
2023-10-09T08:01:07.517Z,100273.81
2023-10-09T08:02:41.192Z,100278.34
2023-10-09T08:04:15.937Z,100279.47
2023-10-09T08:05:48.589Z,100270.28
2023-10-09T08:08:05.988Z,100272.28
2023-10-09T08:09:47.306Z,100266.34
2023-10-09T08:12:01.138Z,100264.25
2023-10-09T08:13:58.475Z,100264.75
2023-10-09T08:15:52.572Z,100258.03
2023-10-09T08:17:28.927Z,100257.56
2023-10-09T08:19:01.277Z,100246.97
2023-10-09T08:20:52.350Z,100257.75
2023-10-09T08:22:53.543Z,100248.25
2023-10-09T08:24:42.623Z,100261.84
2023-10-09T08:26:29.747Z,100263.22
2023-10-09T08:28:21.491Z,100263.31
2023-10-09T08:30:13.772Z,100271.31
2023-10-09T08:31:58.318Z,100263.75
2023-10-09T08:35:31.106Z,100253.00
2023-10-09T08:37:05.891Z,100252.59
2023-10-09T08:38:39.657Z,100264.34
2023-10-09T08:40:19.481Z,100259.00
2023-10-09T08:41:53.310Z,100250.72
2023-10-09T08:43:25.714Z,100253.81
2023-10-09T08:45:01.602Z,100246.94
2023-10-09T08:46:38.341Z,100238.41
2023-10-09T08:48:16.692Z,100252.50
2023-10-09T08:49:50.558Z,100244.06
2023-10-09T08:52:58.847Z,100228.47
2023-10-09T08:54:34.592Z,100231.50
2023-10-09T08:56:09.018Z,100228.81
2023-10-09T08:57:42.374Z,100231.34
2023-10-09T08:59:16.090Z,100220.03
2023-10-09T09:00:49.395Z,100209.44
2023-10-09T09:02:22.849Z,100225.19
2023-10-09T09:03:57.033Z,100215.03
2023-10-09T09:05:30.831Z,100214.03
2023-10-09T09:07:03.436Z,100215.78
2023-10-09T09:08:37.960Z,100202.50
2023-10-09T09:10:18.911Z,100211.41
2023-10-09T09:11:54.040Z,100213.34
2023-10-09T09:13:32.934Z,100209.66
2023-10-09T09:15:19.903Z,100205.09
2023-10-09T09:16:53.690Z,100198.81
2023-10-09T09:18:32.426Z,100190.06
2023-10-09T09:20:24.157Z,100195.22
2023-10-09T09:22:00.608Z,100190.44
2023-10-09T09:23:33.961Z,100186.72
2023-10-09T09:25:10.823Z,100185.25
2023-10-09T09:26:47.223Z,100186.63
2023-10-09T09:28:22.872Z,100191.53
2023-10-09T09:29:55.622Z,100174.38
2023-10-09T09:31:29.016Z,100182.84
2023-10-09T09:33:21.931Z,100183.69
2023-10-09T09:34:57.002Z,100190.22
2023-10-09T09:36:30.666Z,100177.94
2023-10-09T09:38:07.240Z,100180.22
2023-10-09T09:39:52.936Z,100181.78
2023-10-09T09:41:29.177Z,100173.31
2023-10-09T09:43:05.978Z,100156.09
2023-10-09T09:44:46.062Z,100163.84
2023-10-09T09:46:21.721Z,100161.59
2023-10-09T09:47:59.683Z,100153.84
2023-10-09T09:49:33.050Z,100161.28
2023-10-09T09:51:07.427Z,100146.56
2023-10-09T09:52:40.661Z,100154.75
2023-10-09T09:54:16.894Z,100152.00
2023-10-09T09:55:59.593Z,100148.00
2023-10-09T09:57:40.792Z,100143.28
2023-10-09T09:59:22.704Z,100143.88
2023-10-09T10:01:03.164Z,100127.56
2023-10-09T10:02:39.973Z,100117.59
2023-10-09T10:04:21.747Z,100124.16
2023-10-09T10:05:59.539Z,100117.66
2023-10-09T10:07:44.490Z,100124.91
2023-10-09T10:09:40.073Z,100121.50
2023-10-09T10:11:45.967Z,100123.38
2023-10-09T10:13:25.286Z,100122.75
2023-10-09T10:15:00.973Z,100106.78
2023-10-09T10:17:07.645Z,100099.47
2023-10-09T10:19:00.958Z,100097.25
2023-10-09T10:20:33.826Z,100100.47
2023-10-09T10:22:28.669Z,100088.06
2023-10-09T10:24:07.083Z,100085.16
2023-10-09T10:25:44.125Z,100072.50
2023-10-09T10:27:25.269Z,100080.50
2023-10-09T10:29:24.766Z,100081.31
2023-10-09T10:31:00.941Z,100080.75
2023-10-09T10:32:56.082Z,100074.09
2023-10-09T10:34:51.227Z,100068.78
2023-10-09T10:36:26.356Z,100065.22
2023-10-09T10:38:12.658Z,100064.91
2023-10-09T10:39:52.726Z,100056.47
2023-10-09T10:41:25.132Z,100054.63
2023-10-09T10:43:10.918Z,100048.59
2023-10-09T10:44:46.177Z,100040.50
2023-10-09T10:46:26.062Z,100047.88
2023-10-09T10:48:07.934Z,100037.78
2023-10-09T10:49:45.051Z,100042.63
2023-10-09T10:51:23.189Z,100035.22
2023-10-09T10:53:15.236Z,100037.84
2023-10-09T10:54:47.615Z,100041.75
2023-10-09T10:56:20.199Z,100035.75
2023-10-09T10:57:56.975Z,100023.78
2023-10-09T10:59:37.962Z,100008.59
2023-10-09T11:01:14.885Z,100032.13
2023-10-09T11:02:49.524Z,100024.03
2023-10-09T11:04:40.277Z,100013.88
2023-10-09T11:06:15.556Z,100014.09
2023-10-09T11:07:54.139Z,100005.16
2023-10-09T11:09:50.362Z,100005.25
2023-10-09T11:11:33.327Z,99994.03
2023-10-09T11:13:24.020Z,99998.53
2023-10-09T11:15:08.969Z,99996.31
2023-10-09T11:16:43.421Z,100002.34
2023-10-09T11:18:20.897Z,99998.78
2023-10-09T11:19:55.841Z,100002.34
2023-10-09T11:21:41.679Z,99984.16
2023-10-09T11:23:17.961Z,99984.97
2023-10-09T11:25:12.907Z,99989.84
2023-10-09T11:26:55.313Z,99977.81
2023-10-09T11:28:31.381Z,99964.13
2023-10-09T11:30:22.959Z,99972.78
2023-10-09T11:32:02.539Z,99962.19
2023-10-09T11:33:50.136Z,99963.13
2023-10-09T11:35:29.630Z,99956.78
2023-10-09T11:37:14.507Z,99969.84
2023-10-09T11:38:47.228Z,99952.25
2023-10-09T11:40:34.131Z,99954.56
2023-10-09T11:42:08.863Z,99955.28
2023-10-09T11:43:55.034Z,99953.28
2023-10-09T11:45:31.270Z,99940.09
2023-10-09T11:47:24.039Z,99941.16
2023-10-09T11:49:26.829Z,99925.25
2023-10-09T11:51:20.188Z,99927.81
2023-10-09T11:53:34.230Z,99931.78
2023-10-09T11:55:12.192Z,99927.22
2023-10-09T11:56:44.674Z,99922.38
2023-10-09T11:58:23.937Z,99917.50
2023-10-09T11:59:57.266Z,99908.50
2023-10-09T12:01:36.818Z,99910.56
2023-10-09T12:03:10.455Z,99905.38
2023-10-09T12:04:46.752Z,99903.97
2023-10-09T12:06:24.144Z,99898.75
2023-10-09T12:07:58.764Z,99900.59
2023-10-09T12:09:31.176Z,99909.41
2023-10-09T12:11:10.632Z,99881.75
2023-10-09T12:12:47.830Z,99890.53
2023-10-09T12:14:24.988Z,99886.34
2023-10-09T12:15:59.092Z,99883.69
2023-10-09T12:17:32.598Z,99887.88
2023-10-09T12:19:10.566Z,99876.06
2023-10-09T12:20:51.260Z,99884.63
2023-10-09T12:22:28.704Z,99876.25
2023-10-09T12:24:02.924Z,99872.69
2023-10-09T12:25:36.690Z,99870.03
2023-10-09T12:27:12.577Z,99865.03
2023-10-09T12:28:47.733Z,99855.63
2023-10-09T12:30:27.923Z,99865.72
2023-10-09T12:32:01.399Z,99866.88
2023-10-09T12:33:40.889Z,99858.06
2023-10-09T12:35:18.469Z,99868.00
2023-10-09T12:36:52.329Z,99872.31
2023-10-09T12:38:33.097Z,99867.66
2023-10-09T12:40:11.771Z,99872.44
2023-10-09T12:41:44.075Z,99876.25
2023-10-09T12:43:18.203Z,99874.75
2023-10-09T12:44:52.996Z,99872.31
2023-10-09T12:46:26.958Z,99860.28
2023-10-09T12:48:04.298Z,99857.78
2023-10-09T12:49:39.627Z,99847.94
2023-10-09T12:51:17.443Z,99840.53
2023-10-09T12:52:51.956Z,99845.50
2023-10-09T12:54:29.469Z,99835.63
2023-10-09T12:56:02.785Z,99840.59
2023-10-09T12:57:35.298Z,99838.50
2023-10-09T12:59:09.084Z,99830.72
2023-10-09T13:00:45.618Z,99825.38
2023-10-09T13:02:30.065Z,99822.28
2023-10-09T13:04:02.772Z,99826.75
2023-10-09T13:05:36.063Z,99826.19
2023-10-09T13:07:09.521Z,99819.25
2023-10-09T13:08:42.154Z,99822.06
2023-10-09T13:10:17.425Z,99824.16
2023-10-09T13:11:51.730Z,99821.97
2023-10-09T13:13:24.962Z,99820.56
2023-10-09T13:14:57.105Z,99813.00
2023-10-09T13:16:30.598Z,99809.53
2023-10-09T13:18:03.016Z,99805.56
2023-10-09T13:19:36.240Z,99806.84
2023-10-09T13:21:08.664Z,99814.63
2023-10-09T13:22:42.361Z,99812.34
2023-10-09T13:24:17.247Z,99805.84
2023-10-09T13:25:51.009Z,99799.25
2023-10-09T13:27:24.451Z,99803.75
2023-10-09T13:28:58.139Z,99798.09
2023-10-09T13:30:31.869Z,99792.22
2023-10-09T13:32:14.760Z,99777.50
2023-10-09T13:33:47.332Z,99792.78
2023-10-09T13:35:21.298Z,99772.00
2023-10-09T13:36:54.690Z,99774.13
2023-10-09T13:38:28.036Z,99769.09
2023-10-09T13:40:09.937Z,99780.00
2023-10-09T13:41:43.695Z,99775.97
2023-10-09T13:43:18.283Z,99781.53
2023-10-09T13:44:54.908Z,99775.16
2023-10-09T13:46:28.223Z,99781.16
2023-10-09T13:48:04.011Z,99780.47
2023-10-09T13:49:43.287Z,99779.59
2023-10-09T13:51:18.967Z,99769.16
2023-10-09T13:52:55.501Z,99770.31
2023-10-09T13:54:40.844Z,99768.22
2023-10-09T13:56:19.608Z,99758.47
2023-10-09T13:57:58.702Z,99750.84
2023-10-09T13:59:31.206Z,99771.81
2023-10-09T14:01:09.677Z,99766.47
2023-10-09T14:02:42.252Z,99766.38
2023-10-09T14:04:19.686Z,99775.78
2023-10-09T14:05:58.238Z,99766.09
2023-10-09T14:07:36.219Z,99763.59
2023-10-09T14:09:10.911Z,99753.75
2023-10-09T14:10:43.241Z,99768.22
2023-10-09T14:12:20.471Z,99760.06
2023-10-09T14:14:06.130Z,99765.38
2023-10-09T14:15:47.285Z,99766.72
2023-10-09T14:17:24.767Z,99761.97
2023-10-09T14:19:00.556Z,99741.28
2023-10-09T14:20:33.162Z,99757.13
2023-10-09T14:22:06.651Z,99744.38
2023-10-09T14:23:38.822Z,99747.38
2023-10-09T14:25:16.907Z,99742.47
2023-10-09T14:26:53.309Z,99739.34
2023-10-09T14:28:30.193Z,99742.03
2023-10-09T14:30:13.816Z,99741.06
2023-10-09T14:31:50.841Z,99746.38
2023-10-09T14:33:24.895Z,99738.88
2023-10-09T14:35:02.549Z,99738.31
2023-10-09T14:36:35.028Z,99735.41
2023-10-09T14:38:12.854Z,99729.75
2023-10-09T14:39:49.512Z,99734.38
2023-10-09T14:41:24.514Z,99731.47
2023-10-09T14:42:59.199Z,99732.66
2023-10-09T14:44:32.645Z,99731.16
2023-10-09T14:46:12.027Z,99725.81
2023-10-09T14:47:48.158Z,99700.63
2023-10-09T14:49:22.707Z,99727.25
2023-10-09T14:50:59.274Z,99730.84
2023-10-09T14:52:32.839Z,99720.56
2023-10-09T14:54:09.000Z,99717.34
2023-10-09T14:55:46.634Z,99708.78
2023-10-09T14:57:19.989Z,99719.81
2023-10-09T14:58:52.640Z,99709.06
2023-10-09T15:00:27.717Z,99706.63
2023-10-09T15:02:02.889Z,99704.19
2023-10-09T15:03:39.012Z,99692.84
2023-10-09T15:05:13.137Z,99699.81
2023-10-09T15:06:49.625Z,99696.56
2023-10-09T15:08:22.054Z,99691.25
2023-10-09T15:10:05.151Z,99693.00
2023-10-09T15:11:42.825Z,99694.28
2023-10-09T15:13:15.171Z,99691.97
2023-10-09T15:14:48.343Z,99709.16
2023-10-09T15:16:22.950Z,99708.09
2023-10-09T15:17:57.721Z,99708.91
2023-10-09T15:19:32.031Z,99707.94
2023-10-09T15:21:04.969Z,99718.13
2023-10-09T15:22:39.071Z,99714.69
2023-10-09T15:24:16.241Z,99713.88
2023-10-09T15:25:53.149Z,99713.16
2023-10-09T15:27:27.009Z,99708.44
2023-10-09T15:29:04.853Z,99704.25
2023-10-09T15:30:42.272Z,99710.97
2023-10-09T15:32:23.772Z,99688.75
2023-10-09T15:33:58.876Z,99702.03
2023-10-09T15:35:35.034Z,99715.16
2023-10-09T15:37:08.673Z,99713.88
2023-10-09T15:38:42.318Z,99718.84
2023-10-09T15:40:15.719Z,99711.78
2023-10-09T15:41:50.172Z,99709.22
2023-10-09T15:43:22.358Z,99712.31
2023-10-09T15:44:55.989Z,99713.81
2023-10-09T15:46:34.772Z,99717.16
2023-10-09T15:48:07.961Z,99719.91
2023-10-09T15:49:45.149Z,99715.25
2023-10-09T15:51:18.127Z,99723.06
2023-10-09T15:52:53.223Z,99714.59
2023-10-09T15:54:28.610Z,99722.66
2023-10-09T15:56:02.470Z,99721.09
2023-10-09T15:57:36.102Z,99726.28
2023-10-09T15:59:08.607Z,99726.72
2023-10-09T16:00:42.381Z,99718.19
2023-10-09T16:02:16.506Z,99716.97
2023-10-09T16:03:51.248Z,99712.91
2023-10-09T16:05:27.167Z,99707.69
2023-10-09T16:07:00.927Z,99717.84
2023-10-09T16:08:33.253Z,99705.03
2023-10-09T16:10:09.435Z,99708.13
2023-10-09T16:11:41.727Z,99709.81
2023-10-09T16:13:15.350Z,99713.72
2023-10-09T16:14:47.558Z,99716.00
2023-10-09T16:16:27.473Z,99713.06
2023-10-09T16:18:04.492Z,99717.31
2023-10-09T16:19:38.456Z,99714.97
2023-10-09T16:21:13.739Z,99722.22
2023-10-09T16:22:46.946Z,99731.06
2023-10-09T16:24:20.816Z,99726.25
2023-10-09T16:25:53.872Z,99724.47
2023-10-09T16:27:28.761Z,99720.25
2023-10-09T16:29:01.324Z,99728.47
2023-10-09T16:30:34.672Z,99726.66
2023-10-09T16:32:08.711Z,99730.53
2023-10-09T16:33:42.341Z,99725.28
2023-10-09T16:35:14.922Z,99724.09
2023-10-09T16:36:49.562Z,99720.47
2023-10-09T16:38:23.840Z,99719.22
2023-10-09T16:39:59.416Z,99723.34
2023-10-09T16:41:41.186Z,99723.97
2023-10-09T16:43:15.718Z,99718.72
2023-10-09T16:44:49.066Z,99711.22
2023-10-09T16:46:23.255Z,99718.22
2023-10-09T16:48:00.292Z,99724.56
2023-10-09T16:49:33.184Z,99724.81
2023-10-09T16:51:09.857Z,99723.03
2023-10-09T16:52:44.364Z,99717.97
2023-10-09T16:54:17.995Z,99714.97
2023-10-09T16:55:50.765Z,99706.22
2023-10-09T16:57:24.960Z,99716.25
2023-10-09T16:58:58.200Z,99716.44
2023-10-09T17:00:31.033Z,99716.06
2023-10-09T17:02:08.466Z,99711.41
2023-10-09T17:03:44.178Z,99718.53
2023-10-09T17:05:29.326Z,99716.72
2023-10-09T17:07:06.170Z,99718.97
2023-10-09T17:08:43.656Z,99712.91
2023-10-09T17:10:18.393Z,99713.50
2023-10-09T17:11:53.300Z,99714.50
2023-10-09T17:13:27.630Z,99720.16
2023-10-09T17:14:59.893Z,99701.88
2023-10-09T17:16:33.464Z,99710.41
2023-10-09T17:18:08.213Z,99712.63
2023-10-09T17:19:44.161Z,99710.38
2023-10-09T17:21:17.109Z,99712.41
2023-10-09T17:22:51.096Z,99714.44
2023-10-09T17:24:24.718Z,99705.06
2023-10-09T17:25:59.946Z,99714.59
2023-10-09T17:27:32.249Z,99706.50
2023-10-09T17:29:05.795Z,99703.06
2023-10-09T17:30:38.240Z,99699.97
2023-10-09T17:32:13.394Z,99696.13
2023-10-09T17:33:45.739Z,99684.31
2023-10-09T17:35:19.078Z,99683.91
2023-10-09T17:36:51.474Z,99690.41
2023-10-09T17:38:24.940Z,99676.56
2023-10-09T17:39:59.862Z,99672.06
2023-10-09T17:41:36.419Z,99670.84
2023-10-09T17:43:08.682Z,99673.88
2023-10-09T17:44:42.033Z,99675.50
2023-10-09T17:46:14.213Z,99668.78
2023-10-09T17:47:50.980Z,99663.31
2023-10-09T17:49:26.627Z,99660.59
2023-10-09T17:50:59.150Z,99662.56
2023-10-09T17:52:34.625Z,99654.16
2023-10-09T17:54:10.583Z,99659.56
2023-10-09T17:55:45.517Z,99651.84
2023-10-09T17:57:18.868Z,99646.94
2023-10-09T17:58:51.670Z,99646.13
2023-10-09T18:00:24.931Z,99648.50
2023-10-09T18:01:58.792Z,99649.88
2023-10-09T18:03:31.866Z,99654.88
2023-10-09T18:05:05.717Z,99658.34
2023-10-09T18:06:40.859Z,99650.59
2023-10-09T18:08:15.980Z,99642.03
2023-10-09T18:09:53.342Z,99647.50
2023-10-09T18:11:27.968Z,99642.63
2023-10-09T18:13:00.713Z,99640.59
2023-10-09T18:14:35.484Z,99637.97
2023-10-09T18:16:09.789Z,99634.09
2023-10-09T18:17:45.502Z,99633.63
2023-10-09T18:19:21.644Z,99630.63
2023-10-09T18:20:54.640Z,99633.00
2023-10-09T18:22:30.001Z,99638.91
2023-10-09T18:24:06.703Z,99636.72
2023-10-09T18:25:41.631Z,99632.19
2023-10-09T18:27:15.594Z,99644.69
2023-10-09T18:28:49.550Z,99634.94
2023-10-09T18:30:27.357Z,99634.13
2023-10-09T18:32:01.752Z,99628.22
2023-10-09T18:33:35.384Z,99633.25
2023-10-09T18:35:10.762Z,99636.19
2023-10-09T18:36:43.001Z,99636.75
2023-10-09T18:38:17.579Z,99639.94
2023-10-09T18:39:50.775Z,99644.66
2023-10-09T18:41:25.346Z,99641.66
2023-10-09T18:42:59.133Z,99645.69
2023-10-09T18:44:32.498Z,99646.91
2023-10-09T18:46:06.180Z,99635.13
2023-10-09T18:47:40.458Z,99639.81
2023-10-09T18:49:13.230Z,99630.75
2023-10-09T18:50:46.632Z,99613.50
2023-10-09T18:52:19.177Z,99608.31
2023-10-09T18:53:53.500Z,99629.63
2023-10-09T18:55:27.904Z,99616.75
2023-10-09T18:57:01.470Z,99616.81
2023-10-09T18:58:35.070Z,99619.75
2023-10-09T19:00:12.417Z,99608.34
2023-10-09T19:01:48.617Z,99607.72
2023-10-09T19:03:22.129Z,99620.84